Terminal Aerodrome Forecast
Issued by NWS Dallas/Fort Worth, TX

Home | Current Version | Previous Version | Text Only | Print | Product List | Glossary Off
Versions: 1 2 3 4 5 6 7 8 9 10 11 12 13 14 15 16 17 18 19 20 21 22 23 24 25 26 27 28 29 30 31 32 33 34 35 36 37 38 39 40 41 42 43 44 45 46 47 48 49 50

000
FTUS44 KFWD 260308 AAL
TAFDFW
TAF AMD
KDFW 260308Z 2603/2706 17010KT P6SM BKN035
     FM260400 16012KT P6SM VCSH BKN030
     FM260600 18010KT P6SM VCSH OVC020
     FM260900 20009KT P6SM OVC018
     FM261200 30009KT P6SM SCT008 OVC015
      TEMPO 2613/2616 4SM -DZ BR BKN008
     FM261800 34010KT P6SM SCT300
     FM262300 33004KT P6SM FEW300=

USA.gov is the U.S. government's official web portal to all federal, state and local government web resources and services.